Latest Weather Observations for Friendly Beaches

IDT60801

Issued at 12:05 pm EST Saturday 30 August 2014 (issued every 30 minutes, with the page automatically refreshed every 10 minutes)

About weather observations | Map of weather stations | Latest weather observations for TAS | Other Formats
Station Details ID: 092114 Name: FRIENDLY BEACHES Lat: -42.00 Lon: 148.28 Height: 55.0 m
Data from the previous 72 hours. | See also: Recent months at Friendly Beaches
Date/Time
EST
Temp
°C
App
Temp
°C
Dew
Point
Rel
Hum
%
Delta-T
°C
Wind Press
QNH
hPa
Press
MSL
hPa
Rain
since 9 am
mm
Dir
 
Spd
km/h
Gust
km/h
Spd
kts
Gust
kts
30/12:00pm 16.0 12.4 9.7 66 3.3 NE 19 30 10 16 1027.1 1027.2 0.0
30/11:30am 16.0 12.3 9.4 65 3.4 NNE 19 28 10 15 1027.7 1027.8 0.0
30/11:00am 15.7 12.3 9.1 65 3.4 NNE 17 30 9 16 1028.1 1028.2 0.0
30/10:30am 16.1 13.2 9.5 65 3.4 NNE 15 24 8 13 1028.5 1028.6 0.0
30/10:00am 15.6 12.7 9.7 68 3.1 NNE 15 24 8 13 1028.8 1028.9 0.0
30/09:30am 15.2 13.2 10.2 72 2.6 NNE 11 19 6 10 1029.2 1029.3 0.0
30/09:00am 13.0 10.5 9.8 81 1.6 NNE 13 20 7 11 1029.4 1029.5 0.0
30/08:30am 13.1 11.6 10.6 85 1.3 NNE 9 19 5 10 1029.6 1029.7 0.0
30/08:00am 11.9 10.2 9.8 87 1.1 N 9 15 5 8 1029.6 1029.7 0.0
30/07:30am 11.6 10.1 10.7 94 0.5 N 9 17 5 9 1029.4 1029.5 0.0
30/07:00am 10.6 9.0 10.1 97 0.3 N 9 15 5 8 1029.2 1029.3 0.0
30/06:30am 9.7 8.3 9.4 98 0.1 N 7 13 4 7 1029.1 1029.2 0.0
30/06:00am 8.7 7.2 8.4 98 0.1 NE 6 7 3 4 1029.1 1029.2 0.0
30/05:30am 8.3 6.7 8.0 98 0.1 NNE 6 7 3 4 1029.0 1029.1 0.0
30/05:00am 8.1 7.6 7.8 98 0.1 CALM 0 0 0 0 1028.9 1029.0 0.0
30/04:30am 7.8 7.2 7.5 98 0.1 CALM 0 0 0 0 1029.1 1029.2 0.0
30/04:00am 7.2 6.1 6.9 98 0.1 N 2 6 1 3 1029.1 1029.2 0.0
30/03:30am 6.9 5.4 6.6 98 0.1 N 4 4 2 2 1029.2 1029.3 0.0
30/03:00am 6.5 4.5 6.1 97 0.2 WNW 6 7 3 4 1029.3 1029.4 0.0
30/02:30am 6.7 5.1 6.3 97 0.2 WNW 4 7 2 4 1029.3 1029.4 0.0
30/02:00am 6.7 5.0 6.1 96 0.3 NW 4 6 2 3 1029.4 1029.5 0.0
30/01:30am 8.6 8.2 8.2 97 0.2 CALM 0 4 0 2 1029.7 1029.8 0.0
30/01:00am 8.6 7.8 8.0 96 0.3 NNE 2 4 1 2 1029.7 1029.8 0.0
30/12:30am 7.9 7.2 7.1 95 0.4 CALM 0 2 0 1 1029.8 1029.9 0.0
30/12:00am 9.3 8.3 8.7 96 0.3 NE 4 4 2 2 1029.8 1029.9 0.0
 
Date/Time
EST
Temp
°C
App
Temp
°C
Dew
Point
Rel
Hum
%
Delta-T
°C
Wind Press
QNH
hPa
Press
MSL
hPa
Rain
since 9 am
mm
Dir
 
Spd
km/h
Gust
km/h
Spd
kts
Gust
kts
29/11:30pm 9.3 8.6 8.7 96 0.3 NE 2 4 1 2 1029.8 1029.9 0.0
29/11:00pm 8.9 7.7 8.1 95 0.4 N 4 6 2 3 1029.7 1029.8 0.0
29/10:30pm 9.2 7.7 8.6 96 0.3 NNE 6 7 3 4 1029.9 1030.0 0.0
29/10:00pm 9.2 7.7 8.4 95 0.4 N 6 9 3 5 1030.0 1030.1 0.0
29/09:30pm 9.9 9.7 9.1 95 0.4 CALM 0 0 0 0 1030.0 1030.1 0.0
29/09:00pm 9.7 8.3 8.9 95 0.4 NNE 6 7 3 4 1030.1 1030.2 0.0
29/08:30pm 10.0 8.7 9.2 95 0.4 NNE 6 7 3 4 1030.1 1030.2 0.0
29/08:00pm 10.2 9.3 9.3 94 0.4 NE 4 6 2 3 1029.9 1030.0 0.0
29/07:30pm 10.1 9.5 9.0 93 0.5 NNE 2 4 1 2 1029.8 1029.9 0.0
29/07:00pm 10.5 9.2 9.3 92 0.6 NNE 6 9 3 5 1029.7 1029.8 0.0
29/06:30pm 10.7 9.3 9.0 89 0.8 NNE 6 9 3 5 1029.6 1029.7 0.0
29/06:00pm 11.1 9.2 9.2 88 0.9 NNE 9 13 5 7 1029.2 1029.3 0.0
29/05:30pm 12.1 10.6 9.1 82 1.5 NNE 7 13 4 7 1029.1 1029.2 0.0
29/05:00pm 13.3 11.1 9.5 78 1.9 NNE 11 17 6 9 1029.1 1029.2 0.0
29/04:30pm 14.8 12.4 10.0 73 2.5 NNE 13 20 7 11 1028.9 1029.0 0.0
29/04:00pm 15.4 12.9 9.7 69 2.9 NNE 13 20 7 11 1028.6 1028.7 0.0
29/03:30pm 16.3 13.4 9.7 65 3.5 NNE 15 24 8 13 1028.5 1028.6 0.0
29/03:00pm 16.0 13.6 10.1 68 3.1 NE 13 22 7 12 1028.5 1028.6 0.0
29/02:30pm 16.2 13.7 9.8 66 3.4 NE 13 20 7 11 1028.5 1028.6 0.0
29/02:00pm 15.7 13.7 8.7 63 3.6 ENE 9 13 5 7 1028.8 1028.9 0.0
29/01:30pm 15.9 14.0 9.1 64 3.5 ENE 9 15 5 8 1028.9 1029.0 0.0
29/01:00pm 15.7 13.7 8.7 63 3.6 ENE 9 15 5 8 1029.0 1029.1 0.0
29/12:30pm 15.4 13.0 8.6 64 3.5 ENE 11 15 6 8 1029.1 1029.2 0.0
29/12:00pm 15.3 12.9 8.8 65 3.3 ENE 11 17 6 9 1029.5 1029.6 0.0
29/11:30am 16.1 13.8 9.1 63 3.6 ENE 11 15 6 8 1029.7 1029.8 0.0
29/11:00am 15.6 13.3 7.6 59 4.0 NE 9 15 5 8 1029.7 1029.8 0.0
29/10:30am 15.6 13.3 7.6 59 4.0 ENE 9 15 5 8 1029.8 1029.9 0.0
29/10:00am 15.4 13.2 7.7 60 3.8 ENE 9 15 5 8 1029.6 1029.7 0.0
29/09:30am 14.2 13.8 8.2 67 3.0 CALM 0 0 0 0 1029.9 1030.0 0.0
29/09:00am 12.5 11.9 7.4 71 2.5 CALM 0 0 0 0 1030.0 1030.1 0.0
29/08:30am 11.4 11.0 8.4 82 1.5 CALM 0 0 0 0 1029.9 1030.0 0.0
29/08:00am 10.0 9.6 8.1 88 0.9 CALM 0 0 0 0 1029.6 1029.7 0.0
29/07:30am 8.5 7.8 7.0 90 0.7 CALM 0 0 0 0 1029.4 1029.5 0.0
29/07:00am 7.0 6.0 5.6 91 0.6 CALM 0 0 0 0 1029.1 1029.2 0.0
29/06:30am 7.4 6.3 5.0 85 1.1 CALM 0 0 0 0 1028.9 1029.0 0.0
29/06:00am 8.0 7.0 5.5 84 1.1 CALM 0 0 0 0 1028.5 1028.6 0.0
29/05:30am 7.8 6.7 5.1 83 1.2 CALM 0 0 0 0 1028.3 1028.4 0.0
29/05:00am 7.9 6.8 5.0 82 1.3 CALM 0 0 0 0 1028.3 1028.4 0.0
29/04:30am 7.9 6.7 4.8 81 1.4 CALM 0 0 0 0 1028.2 1028.3 0.0
29/04:00am 7.6 5.3 4.9 83 1.2 WNW 6 7 3 4 1028.3 1028.4 0.0
29/03:30am 7.4 4.9 4.5 82 1.3 W 7 9 4 5 1028.3 1028.4 0.0
29/03:00am 8.7 6.6 4.1 73 2.0 WNW 4 7 2 4 1028.2 1028.3 0.0
29/02:30am 9.8 7.3 4.6 70 2.3 N 7 9 4 5 1028.1 1028.2 0.0
29/02:00am 9.2 6.9 4.6 73 2.0 N 6 7 3 4 1028.1 1028.2 0.0
29/01:30am 9.6 7.2 4.4 70 2.3 N 6 7 3 4 1028.2 1028.3 0.0
29/01:00am 9.5 7.2 4.9 73 2.1 NNW 6 7 3 4 1028.2 1028.3 0.0
29/12:30am 9.3 7.3 6.4 82 1.3 W 6 7 3 4 1028.2 1028.3 0.0
29/12:00am 9.7 7.6 6.6 81 1.4 W 7 9 4 5 1028.2 1028.3 0.0
 
Date/Time
EST
Temp
°C
App
Temp
°C
Dew
Point
Rel
Hum
%
Delta-T
°C
Wind Press
QNH
hPa
Press
MSL
hPa
Rain
since 9 am
mm
Dir
 
Spd
km/h
Gust
km/h
Spd
kts
Gust
kts
28/11:30pm 9.8 7.7 6.7 81 1.5 W 7 9 4 5 1028.1 1028.2 0.0
28/11:00pm 10.1 8.8 7.5 84 1.2 S 4 6 2 3 1028.0 1028.1 0.0
28/10:30pm 10.4 9.6 6.5 77 1.8 CALM 0 0 0 0 1028.1 1028.2 0.0
28/10:00pm 10.7 9.6 6.8 77 1.8 N 2 4 1 2 1028.3 1028.4 0.0
28/09:30pm 11.3 9.8 7.0 75 2.1 NE 4 6 2 3 1028.2 1028.3 0.0
28/09:00pm 11.7 11.0 6.8 72 2.3 CALM 0 0 0 0 1028.1 1028.2 0.0
28/08:30pm 12.3 10.2 6.8 69 2.6 WNW 7 11 4 6 1028.0 1028.1 0.0
28/08:00pm 12.2 10.0 7.9 75 2.1 NW 9 11 5 6 1027.9 1028.0 0.0
28/07:30pm 12.1 10.6 9.1 82 1.5 WNW 7 9 4 5 1027.9 1028.0 0.0
28/07:00pm 11.9 11.4 9.3 84 1.3 SSE 2 4 1 2 1027.8 1027.9 0.0
28/06:30pm 11.9 10.4 9.3 84 1.3 N 7 9 4 5 1027.7 1027.8 0.0
28/06:00pm 12.1 10.2 8.9 81 1.6 NNE 9 13 5 7 1027.4 1027.5 0.0
28/05:30pm 12.7 10.0 9.0 78 1.9 NNE 13 19 7 10 1027.3 1027.4 0.0
28/05:00pm 13.1 9.9 8.6 74 2.2 NNE 15 24 8 13 1027.1 1027.2 0.0
28/04:30pm 13.7 10.6 9.0 73 2.4 N 15 24 8 13 1027.1 1027.2 0.0
28/04:00pm 13.7 10.9 8.7 72 2.5 NNE 13 19 7 10 1027.3 1027.4 0.0
28/03:30pm 14.9 11.4 8.6 66 3.2 N 17 22 9 12 1027.3 1027.4 0.0
28/03:00pm 15.2 11.3 8.7 65 3.3 N 19 30 10 16 1027.3 1027.4 0.0
28/02:30pm 17.0 13.3 9.4 61 4.0 NNE 19 28 10 15 1027.4 1027.5 0.0
28/02:00pm 16.3 12.8 10.2 67 3.2 NNE 19 28 10 15 1027.4 1027.5 0.0
28/01:30pm 15.6 12.3 9.5 67 3.2 NNE 17 26 9 14 1027.6 1027.7 0.0
28/01:00pm 15.5 12.5 10.5 72 2.6 NNE 17 24 9 13 1027.9 1028.0 0.0
28/12:30pm 16.0 12.8 10.1 68 3.1 NNE 17 26 9 14 1028.2 1028.3 0.0
28/12:00pm 16.9 13.5 9.1 60 4.0 NNE 17 24 9 13 1028.6 1028.7 0.0
28/11:30am 16.7 13.5 8.4 58 4.2 NNE 15 24 8 13 1028.9 1029.0 0.0
28/11:00am 17.3 13.7 6.8 50 5.2 NNE 15 22 8 12 1029.2 1029.3 0.0
28/10:30am 16.4 13.8 7.6 56 4.4 NNE 11 19 6 10 1029.4 1029.5 0.0
28/10:00am 15.5 13.7 7.0 57 4.2 NNW 6 11 3 6 1029.5 1029.6 0.0
28/09:30am 14.3 12.5 7.1 62 3.5 WNW 6 9 3 5 1029.6 1029.7 0.0
28/09:00am 12.6 12.0 8.9 78 1.8 SE 2 4 1 2 1029.6 1029.7 0.0
28/08:30am 11.7 10.4 7.6 76 2.0 E 4 6 2 3 1029.6 - 0.0
28/08:00am 9.8 7.8 6.2 78 1.7 N 6 11 3 6 1029.5 1029.6 0.0
28/07:30am 9.8 8.1 6.0 77 1.8 W 4 6 2 3 1029.4 - 0.0
28/07:00am 9.4 8.4 5.6 77 1.7 CALM 0 0 0 0 1029.1 1029.2 0.0
28/06:30am 9.4 8.3 5.0 74 2.0 CALM 0 0 0 0 1028.9 - 0.0
28/06:00am 9.7 7.3 5.3 74 2.0 N 7 9 4 5 1028.8 1028.9 0.0
28/05:30am 9.5 8.4 4.9 73 2.1 CALM 0 4 0 2 1028.7 - 0.0
28/05:00am 9.3 7.9 5.3 76 1.8 NNW 2 6 1 3 1028.6 1028.7 0.0
28/04:30am 9.2 8.2 5.6 78 1.6 CALM 0 0 0 0 1028.5 - 0.0
28/04:00am 9.5 8.5 5.5 76 1.8 CALM 0 0 0 0 1028.7 1028.8 0.0
28/03:30am 9.2 8.1 5.2 76 1.8 CALM 0 4 0 2 1028.7 - 0.0
28/03:00am 9.9 8.8 4.9 71 2.2 CALM 0 2 0 1 1028.7 1028.8 0.0
28/02:30am 9.1 7.1 4.5 73 2.0 NNW 4 6 2 3 1028.8 - 0.0
28/02:00am 9.9 7.7 5.1 72 2.2 NW 6 7 3 4 1028.8 1028.9 0.0
28/01:30am 10.0 7.5 5.0 71 2.3 NW 7 9 4 5 1028.9 - 0.0
28/01:00am 10.4 8.2 5.2 70 2.4 NW 6 9 3 5 1029.0 1029.1 0.0
28/12:30am 10.2 7.9 4.6 68 2.5 NW 6 7 3 4 1029.1 - 0.0
28/12:00am 10.9 8.4 4.6 65 2.8 NW 7 11 4 6 1029.0 1029.1 0.0
 
Date/Time
EST
Temp
°C
App
Temp
°C
Dew
Point
Rel
Hum
%
Delta-T
°C
Wind Press
QNH
hPa
Press
MSL
hPa
Rain
since 9 am
mm
Dir
 
Spd
km/h
Gust
km/h
Spd
kts
Gust
kts
27/11:30pm 11.0 8.5 4.7 65 2.9 NNW 7 9 4 5 1029.0 - 0.0
27/11:00pm 11.0 8.5 4.9 66 2.8 NNW 7 9 4 5 1028.9 1029.0 0.0
27/10:30pm 11.0 8.8 5.5 69 2.5 NNW 6 7 3 4 1028.8 - 0.0
27/10:00pm 10.4 8.7 6.0 74 2.0 N 4 7 2 4 1028.7 1028.8 0.0
27/09:30pm 10.8 8.8 6.4 74 2.1 N 6 7 3 4 1028.6 - 0.0
27/09:00pm 11.5 9.3 6.4 71 2.4 NNW 7 11 4 6 1028.5 1028.6 0.0
27/08:30pm 12.0 9.9 6.7 70 2.5 NW 7 11 4 6 1028.4 - 0.0
27/08:00pm 12.6 10.6 7.1 69 2.6 NW 7 11 4 6 1028.3 1028.4 0.0
27/07:30pm 12.7 10.5 7.8 72 2.4 NW 9 13 5 7 1028.1 - 0.0
27/07:00pm 12.7 11.1 8.8 77 1.9 NNW 7 9 4 5 1028.0 1028.1 0.0
27/06:30pm 13.0 11.6 9.4 79 1.8 NW 7 11 4 6 1027.8 - 0.0
27/06:00pm 13.6 11.9 9.8 78 1.9 N 9 15 5 8 1027.5 1027.6 0.0
27/05:30pm 14.3 11.5 9.9 75 2.3 N 15 22 8 12 1027.1 - 0.0
27/05:00pm 15.2 12.8 10.2 72 2.6 N 13 22 7 12 1027.0 1027.1 0.0
27/04:30pm 16.0 13.3 10.3 69 3.0 N 15 22 8 12 1027.0 - 0.0
27/04:00pm 16.4 13.3 10.3 67 3.2 N 17 26 9 14 1026.9 1027.0 0.0
27/03:30pm 17.2 14.1 10.3 64 3.7 N 17 22 9 12 1027.0 - 0.0
27/03:00pm 18.1 15.6 11.0 63 3.8 N 15 24 8 13 1027.0 1027.1 0.0
27/02:30pm 18.1 15.2 11.0 63 3.8 NNE 17 24 9 13 1027.3 - 0.0
27/02:00pm 18.3 15.1 11.4 64 3.8 NNE 19 26 10 14 1027.5 1027.6 0.0
27/01:30pm 18.3 15.3 10.7 61 4.1 NNE 17 26 9 14 1027.7 - 0.0
27/01:00pm 17.8 14.4 10.7 63 3.8 NNE 19 28 10 15 1027.8 1027.9 0.0
27/12:30pm 18.4 15.0 11.2 63 3.9 NNE 20 30 11 16 1028.1 - 0.0

Other Formats:

Comma delimited format used in spreadsheet applications
http://www.bom.gov.au/fwo/IDT60801/IDT60801.94987.axf

JavaScript Object Notation format (JSON) in row-major order
http://www.bom.gov.au/fwo/IDT60801/IDT60801.94987.json